createdAt,value
2018-06-16T00:01:07.985Z,6.87
2018-06-16T00:03:36.621Z,7.10
2018-06-16T00:06:05.376Z,6.90
2018-06-16T00:08:34.141Z,7.20
2018-06-16T00:11:02.954Z,7.00
2018-06-16T00:13:31.642Z,7.60
2018-06-16T00:16:00.391Z,6.03
2018-06-16T00:18:29.054Z,7.00
2018-06-16T00:20:57.763Z,7.20
2018-06-16T00:23:26.466Z,6.83
2018-06-16T00:25:55.156Z,7.30
2018-06-16T00:28:23.864Z,6.90
2018-06-16T00:30:52.676Z,9.67
2018-06-16T00:33:21.427Z,6.70
2018-06-16T00:35:50.097Z,7.57
2018-06-16T00:38:18.815Z,7.73
2018-06-16T00:40:47.697Z,7.10
2018-06-16T00:43:16.458Z,6.80
2018-06-16T00:45:45.254Z,6.73
2018-06-16T00:48:14.002Z,6.60
2018-06-16T00:50:42.690Z,6.97
2018-06-16T00:53:11.396Z,7.20
2018-06-16T00:55:40.373Z,6.93
2018-06-16T00:58:09.754Z,7.20
2018-06-16T01:00:38.608Z,6.60
2018-06-16T01:03:07.370Z,7.47
2018-06-16T01:05:36.046Z,6.90
2018-06-16T01:08:05.426Z,7.20
2018-06-16T01:10:34.177Z,7.00
2018-06-16T01:13:02.910Z,7.77
2018-06-16T01:15:31.679Z,6.57
2018-06-16T01:18:00.385Z,7.20
2018-06-16T01:20:29.139Z,6.80
2018-06-16T01:22:57.809Z,6.80
2018-06-16T01:25:26.570Z,7.17
2018-06-16T01:27:55.389Z,6.67
2018-06-16T01:30:24.219Z,7.80
2018-06-16T01:32:52.935Z,7.27
2018-06-16T01:35:21.786Z,6.60
2018-06-16T01:37:50.473Z,6.80
2018-06-16T01:40:19.132Z,6.57
2018-06-16T01:42:47.785Z,7.30
2018-06-16T01:45:16.434Z,7.27
2018-06-16T01:47:45.101Z,6.33
2018-06-16T01:50:13.813Z,7.00
2018-06-16T01:52:42.501Z,7.00
2018-06-16T01:55:11.179Z,6.57
2018-06-16T01:57:39.845Z,7.20
2018-06-16T02:00:08.670Z,6.50
2018-06-16T02:02:37.397Z,6.97
2018-06-16T02:05:06.844Z,7.07
2018-06-16T02:07:35.569Z,7.40
2018-06-16T02:10:04.364Z,6.23
2018-06-16T02:12:33.021Z,6.90
2018-06-16T02:15:01.707Z,7.00
2018-06-16T02:17:30.393Z,6.60
2018-06-16T02:19:59.025Z,7.33
2018-06-16T02:22:27.759Z,7.13
2018-06-16T02:24:56.437Z,7.60
2018-06-16T02:27:25.167Z,7.27
2018-06-16T02:29:53.868Z,7.30
2018-06-16T02:32:22.520Z,7.60
2018-06-16T02:34:51.151Z,7.40
2018-06-16T02:37:19.780Z,7.10
2018-06-16T02:39:48.439Z,6.80
2018-06-16T02:42:17.097Z,7.60
2018-06-16T02:44:45.726Z,7.00
2018-06-16T02:47:14.422Z,6.70
2018-06-16T02:49:43.140Z,6.90
2018-06-16T02:52:11.908Z,7.30
2018-06-16T02:54:40.497Z,7.37
2018-06-16T02:57:09.591Z,7.37
2018-06-16T02:59:38.245Z,7.27
2018-06-16T03:02:06.970Z,6.93
2018-06-16T03:04:35.666Z,8.00
2018-06-16T03:07:04.366Z,6.90
2018-06-16T03:09:33.063Z,6.80
2018-06-16T03:12:01.785Z,7.30
2018-06-16T03:14:30.415Z,7.80
2018-06-16T03:16:59.050Z,6.87
2018-06-16T03:19:27.678Z,7.73
2018-06-16T03:21:56.412Z,8.50
2018-06-16T03:24:25.067Z,6.80
2018-06-16T03:26:53.757Z,6.87
2018-06-16T03:29:22.399Z,7.47
2018-06-16T03:31:51.028Z,6.83
2018-06-16T03:34:19.723Z,7.33
2018-06-16T03:36:48.402Z,7.53
2018-06-16T03:39:17.029Z,7.13
2018-06-16T03:41:45.699Z,6.60
2018-06-16T03:44:14.339Z,6.63
2018-06-16T03:46:42.983Z,7.30
2018-06-16T03:49:12.561Z,7.50
2018-06-16T03:51:41.186Z,7.40
2018-06-16T03:54:09.822Z,6.40
2018-06-16T03:56:38.742Z,7.40
2018-06-16T03:59:07.444Z,6.90
2018-06-16T04:01:36.069Z,7.13
2018-06-16T04:04:05.439Z,7.87
2018-06-16T04:06:34.113Z,6.60
2018-06-16T04:09:02.811Z,7.30
2018-06-16T04:11:31.507Z,6.23
2018-06-16T04:14:00.215Z,7.10
2018-06-16T04:16:28.937Z,6.63
2018-06-16T04:18:57.670Z,7.20
2018-06-16T04:21:26.336Z,7.10
2018-06-16T04:23:55.027Z,7.57
2018-06-16T04:26:23.683Z,7.83
2018-06-16T04:28:52.425Z,7.30
2018-06-16T04:31:21.124Z,6.97
2018-06-16T04:33:50.681Z,7.40
2018-06-16T04:36:20.004Z,7.10
2018-06-16T04:38:48.663Z,6.57
2018-06-16T04:41:17.306Z,7.13
2018-06-16T04:43:45.987Z,5.70
2018-06-16T04:46:14.635Z,7.20
2018-06-16T04:48:43.332Z,6.50
2018-06-16T04:51:12.149Z,6.63
2018-06-16T04:53:40.803Z,6.90
2018-06-16T04:56:09.478Z,6.23
2018-06-16T04:58:38.206Z,7.50
2018-06-16T05:01:06.819Z,6.47
2018-06-16T05:03:35.483Z,7.10
2018-06-16T05:06:04.186Z,7.10
2018-06-16T05:08:32.872Z,6.67
2018-06-16T05:11:01.468Z,6.93
2018-06-16T05:13:30.165Z,7.10
2018-06-16T05:15:58.829Z,6.63
2018-06-16T05:18:27.472Z,6.80
2018-06-16T05:20:56.197Z,6.80
2018-06-16T05:23:24.927Z,6.77
2018-06-16T05:25:53.574Z,6.93
2018-06-16T05:28:22.256Z,5.80
2018-06-16T05:30:50.872Z,7.30
2018-06-16T05:33:19.536Z,6.60
2018-06-16T05:35:48.897Z,6.43
2018-06-16T05:38:17.652Z,6.40
2018-06-16T05:40:46.314Z,7.47
2018-06-16T05:43:15.035Z,6.93
2018-06-16T05:45:44.113Z,6.17
2018-06-16T05:48:12.835Z,6.33
2018-06-16T05:50:41.514Z,6.57
2018-06-16T05:53:10.205Z,7.00
2018-06-16T05:55:38.881Z,6.70
2018-06-16T05:58:07.565Z,5.53
2018-06-16T06:00:36.259Z,7.20
2018-06-16T06:03:05.220Z,6.33
2018-06-16T06:05:33.959Z,6.30
2018-06-16T06:08:02.615Z,6.73
2018-06-16T06:10:31.368Z,7.00
2018-06-16T06:13:00.007Z,6.70
2018-06-16T06:15:29.663Z,6.17
2018-06-16T06:17:58.413Z,6.00
2018-06-16T06:20:27.085Z,6.33
2018-06-16T06:22:55.763Z,6.20
2018-06-16T06:25:24.408Z,6.40
2018-06-16T06:27:53.143Z,6.40
2018-06-16T06:30:21.805Z,6.20
2018-06-16T06:32:50.490Z,6.90
2018-06-16T06:35:19.149Z,6.80
2018-06-16T06:37:47.838Z,6.80
2018-06-16T06:40:16.583Z,6.70
2018-06-16T06:42:45.346Z,6.77
2018-06-16T06:45:14.285Z,7.07
2018-06-16T06:47:42.974Z,5.80
2018-06-16T06:50:11.707Z,7.10
2018-06-16T06:52:40.404Z,6.90
2018-06-16T06:55:10.149Z,7.20
2018-06-16T06:57:40.990Z,6.67
2018-06-16T07:00:09.871Z,6.20
2018-06-16T07:02:38.527Z,6.40
2018-06-16T07:05:07.204Z,6.70
2018-06-16T07:07:35.999Z,6.77
2018-06-16T07:10:04.658Z,7.40
2018-06-16T07:12:33.407Z,7.40
2018-06-16T07:15:02.047Z,6.43
2018-06-16T07:17:30.732Z,6.20
2018-06-16T07:19:59.419Z,6.93
2018-06-16T07:22:28.071Z,6.20
2018-06-16T07:24:56.730Z,7.10
2018-06-16T07:27:25.364Z,6.37
2018-06-16T07:29:54.075Z,6.30
2018-06-16T07:32:22.780Z,6.70
2018-06-16T07:34:51.439Z,7.13
2018-06-16T07:37:20.137Z,6.87
2018-06-16T07:39:48.865Z,6.03
2018-06-16T07:42:17.523Z,6.10
2018-06-16T07:44:46.171Z,6.50
2018-06-16T07:47:14.872Z,6.20
2018-06-16T07:49:43.567Z,6.43
2018-06-16T07:52:12.255Z,7.07
2018-06-16T07:54:40.931Z,7.10
2018-06-16T07:59:43.474Z,6.17
2018-06-16T08:02:12.141Z,6.33
2018-06-16T08:04:40.848Z,6.07
2018-06-16T08:07:09.484Z,5.47
2018-06-16T08:09:38.437Z,6.50
2018-06-16T08:12:07.291Z,6.60
2018-06-16T08:14:36.014Z,5.57
2018-06-16T08:17:04.645Z,6.00
2018-06-16T08:19:33.260Z,5.23
2018-06-16T08:22:02.015Z,6.40
2018-06-16T08:24:30.952Z,5.77
2018-06-16T08:27:00.032Z,6.30
2018-06-16T08:29:28.747Z,6.13
2018-06-16T08:31:57.583Z,5.53
2018-06-16T08:34:26.242Z,5.53
2018-06-16T08:36:54.904Z,5.57
2018-06-16T08:39:23.539Z,5.17
2018-06-16T08:41:52.170Z,5.57
2018-06-16T08:44:20.811Z,5.70
2018-06-16T08:46:49.447Z,5.43
2018-06-16T08:49:18.084Z,5.93
2018-06-16T08:51:46.824Z,4.93
2018-06-16T08:54:15.470Z,6.00
2018-06-16T08:56:44.323Z,5.73
2018-06-16T08:59:13.139Z,5.60
2018-06-16T09:01:42.555Z,5.27
2018-06-16T09:04:11.242Z,5.27
2018-06-16T09:06:40.122Z,5.00
2018-06-16T09:09:09.459Z,6.03
2018-06-16T09:11:38.591Z,4.77
2018-06-16T09:14:07.253Z,5.40
2018-06-16T09:16:36.067Z,5.43
2018-06-16T09:19:05.184Z,5.13
2018-06-16T09:21:33.828Z,5.33
2018-06-16T09:24:02.568Z,4.90
2018-06-16T09:26:31.213Z,5.10
2018-06-16T09:28:59.833Z,5.10
2018-06-16T09:31:28.465Z,5.00
2018-06-16T09:33:57.310Z,4.70
2018-06-16T09:36:26.581Z,4.33
2018-06-16T09:38:55.239Z,4.27
2018-06-16T09:41:24.107Z,4.70
2018-06-16T09:43:52.861Z,4.90
2018-06-16T09:46:21.499Z,4.70
2018-06-16T09:48:50.174Z,4.10
2018-06-16T09:51:18.882Z,3.87
2018-06-16T09:53:47.590Z,3.63
2018-06-16T09:56:16.254Z,3.90
2018-06-16T09:58:44.902Z,3.30
2018-06-16T10:01:13.615Z,3.60
2018-06-16T10:03:42.294Z,3.50
2018-06-16T10:06:10.925Z,3.53
2018-06-16T10:08:39.689Z,3.73
2018-06-16T10:11:08.434Z,3.30
2018-06-16T10:13:37.169Z,3.43
2018-06-16T10:16:05.982Z,3.23
2018-06-16T10:18:34.690Z,3.20
2018-06-16T10:21:03.401Z,3.87
2018-06-16T10:23:32.115Z,4.20
2018-06-16T10:26:00.793Z,4.10
2018-06-16T10:28:29.439Z,3.40
2018-06-16T10:30:58.194Z,3.53
2018-06-16T10:33:26.823Z,3.97
2018-06-16T10:35:55.543Z,3.43
2018-06-16T10:38:24.829Z,3.57
2018-06-16T10:40:53.438Z,3.30
2018-06-16T10:43:22.105Z,3.03
2018-06-16T10:45:50.698Z,3.40
2018-06-16T10:48:19.345Z,3.23
2018-06-16T10:50:47.957Z,3.53
2018-06-16T10:53:16.558Z,3.47
2018-06-16T10:55:45.153Z,3.13
2018-06-16T10:58:13.777Z,3.50
2018-06-16T11:00:42.436Z,3.10
2018-06-16T11:03:11.105Z,2.63
2018-06-16T11:05:39.783Z,3.13
2018-06-16T11:08:08.548Z,3.00
2018-06-16T11:10:37.169Z,2.80
2018-06-16T11:13:05.829Z,2.83
2018-06-16T11:15:34.409Z,3.03
2018-06-16T11:18:03.023Z,3.10
2018-06-16T11:20:31.613Z,3.10
2018-06-16T11:23:00.194Z,3.40
2018-06-16T11:25:28.814Z,3.00
2018-06-16T11:27:57.418Z,3.20
2018-06-16T11:30:26.076Z,3.30
2018-06-16T11:32:54.690Z,3.00
2018-06-16T11:35:23.322Z,3.20
2018-06-16T11:37:51.988Z,2.90
2018-06-16T11:40:20.648Z,2.90
2018-06-16T11:42:49.403Z,3.53
2018-06-16T11:45:18.037Z,3.40
2018-06-16T11:47:47.421Z,3.90
2018-06-16T11:50:16.111Z,3.80
2018-06-16T11:52:44.746Z,3.50
2018-06-16T11:55:14.030Z,3.90
2018-06-16T11:57:42.768Z,3.50
2018-06-16T12:00:11.397Z,3.27
2018-06-16T12:02:40.153Z,3.77
2018-06-16T12:05:08.755Z,3.90
2018-06-16T12:07:38.072Z,4.07
2018-06-16T12:10:13.376Z,3.70
2018-06-16T12:12:42.113Z,4.13
2018-06-16T12:15:10.734Z,4.20
2018-06-16T12:17:39.365Z,3.93
2018-06-16T12:20:08.029Z,3.70
2018-06-16T12:22:36.693Z,4.30
2018-06-16T12:25:05.374Z,3.90
2018-06-16T12:27:33.995Z,4.57
2018-06-16T12:30:03.390Z,4.07
2018-06-16T12:32:32.047Z,4.10
2018-06-16T12:35:00.733Z,4.07
2018-06-16T12:37:29.355Z,4.00
2018-06-16T12:39:58.009Z,3.90
2018-06-16T12:42:26.754Z,3.63
2018-06-16T12:44:55.442Z,4.07
2018-06-16T12:47:24.069Z,4.60
2018-06-16T12:49:52.651Z,4.40
2018-06-16T12:52:21.338Z,3.77
2018-06-16T12:54:49.965Z,4.00
2018-06-16T12:57:18.644Z,4.37
2018-06-16T12:59:47.274Z,4.97
2018-06-16T13:02:15.860Z,4.50
2018-06-16T13:04:44.611Z,3.87
2018-06-16T13:07:13.585Z,4.00
2018-06-16T13:09:42.276Z,3.57
2018-06-16T13:12:10.923Z,3.50
2018-06-16T13:14:41.162Z,3.73
2018-06-16T13:17:09.759Z,3.60
2018-06-16T13:19:38.454Z,3.57
2018-06-16T13:22:07.148Z,3.53
2018-06-16T13:24:35.859Z,3.70
2018-06-16T13:27:04.554Z,3.73
2018-06-16T13:29:33.195Z,4.13
2018-06-16T13:32:01.902Z,3.37
2018-06-16T13:34:30.535Z,3.30
2018-06-16T13:36:59.198Z,4.40
2018-06-16T13:39:27.851Z,4.23
2018-06-16T13:41:56.485Z,3.70
2018-06-16T13:44:25.104Z,3.40
2018-06-16T13:46:56.474Z,3.57
2018-06-16T13:49:25.108Z,4.30
2018-06-16T13:51:53.758Z,3.80
2018-06-16T13:54:22.377Z,4.20
2018-06-16T13:56:51.042Z,4.10
2018-06-16T13:59:19.722Z,4.23
2018-06-16T14:01:48.323Z,4.20
2018-06-16T14:04:16.954Z,4.07
2018-06-16T14:06:45.566Z,4.60
2018-06-16T14:09:14.194Z,4.30
2018-06-16T14:11:42.843Z,4.73
2018-06-16T14:14:11.517Z,4.73
2018-06-16T14:16:40.222Z,4.10
2018-06-16T14:19:08.905Z,4.10
2018-06-16T14:21:37.553Z,4.50
2018-06-16T14:24:11.674Z,3.90
2018-06-16T14:26:42.030Z,3.70
2018-06-16T14:29:10.748Z,3.53
2018-06-16T14:31:39.434Z,3.93
2018-06-16T14:34:08.112Z,4.30
2018-06-16T14:36:39.332Z,4.13
2018-06-16T14:39:09.059Z,3.90
2018-06-16T14:41:37.659Z,4.43
2018-06-16T14:44:06.950Z,4.20
2018-06-16T14:46:35.607Z,4.53
2018-06-16T14:49:04.386Z,3.80
2018-06-16T14:51:33.032Z,4.27
2018-06-16T14:54:01.719Z,3.70
2018-06-16T14:56:30.343Z,4.17
2018-06-16T14:58:58.984Z,4.13
2018-06-16T15:01:27.703Z,4.30
2018-06-16T15:03:56.295Z,4.50
2018-06-16T15:06:24.962Z,3.93
2018-06-16T15:08:53.684Z,4.00
2018-06-16T15:11:22.294Z,4.60
2018-06-16T15:13:53.301Z,4.33
2018-06-16T15:16:22.239Z,5.13
2018-06-16T15:18:50.941Z,4.60
2018-06-16T15:21:19.598Z,4.43
2018-06-16T15:23:50.598Z,4.67
2018-06-16T15:26:20.134Z,4.40
2018-06-16T15:28:51.947Z,4.53
2018-06-16T15:31:20.546Z,4.03
2018-06-16T15:33:49.150Z,4.20
2018-06-16T15:36:19.013Z,5.60
2018-06-16T15:38:47.725Z,5.00
2018-06-16T15:41:16.370Z,4.60
2018-06-16T15:43:45.020Z,4.80
2018-06-16T15:46:13.691Z,3.90
2018-06-16T15:48:42.828Z,3.80
2018-06-16T15:51:11.522Z,4.43
2018-06-16T15:53:40.144Z,3.80
2018-06-16T15:56:08.838Z,4.50
2018-06-16T15:58:37.501Z,4.60
2018-06-16T16:01:06.160Z,4.57
2018-06-16T16:03:34.762Z,5.10
2018-06-16T16:06:03.390Z,4.30
2018-06-16T16:08:32.038Z,4.47
2018-06-16T16:11:00.694Z,4.50
2018-06-16T16:13:29.333Z,4.40
2018-06-16T16:15:57.936Z,4.87
2018-06-16T16:18:26.569Z,4.10
2018-06-16T16:20:55.334Z,3.90
2018-06-16T16:23:23.965Z,4.87
2018-06-16T16:25:52.646Z,3.93
2018-06-16T16:28:21.330Z,4.07
2018-06-16T16:30:50.009Z,3.83
2018-06-16T16:33:18.745Z,3.80
2018-06-16T16:35:47.890Z,4.07
2018-06-16T16:38:16.570Z,4.30
2018-06-16T16:40:45.305Z,4.30
2018-06-16T16:43:13.958Z,4.57
2018-06-16T16:45:42.738Z,4.50
2018-06-16T16:48:11.453Z,4.30
2018-06-16T16:50:40.810Z,4.63
2018-06-16T16:53:09.436Z,5.07
2018-06-16T16:55:38.176Z,5.07
2018-06-16T16:58:06.869Z,4.90
2018-06-16T17:00:35.477Z,4.97
2018-06-16T17:03:04.098Z,4.90
2018-06-16T17:05:32.749Z,5.30
2018-06-16T17:08:01.446Z,5.00
2018-06-16T17:10:30.124Z,5.03
2018-06-16T17:12:58.851Z,5.87
2018-06-16T17:15:27.548Z,5.43
2018-06-16T17:17:56.172Z,5.67
2018-06-16T17:20:24.880Z,6.30
2018-06-16T17:22:53.510Z,5.23
2018-06-16T17:25:22.102Z,5.13
2018-06-16T17:27:50.791Z,5.30
2018-06-16T17:30:19.390Z,5.50
2018-06-16T17:32:48.051Z,5.07
2018-06-16T17:35:17.402Z,5.50
2018-06-16T17:37:46.039Z,5.33
2018-06-16T17:40:14.723Z,4.93
2018-06-16T17:42:43.415Z,4.67
2018-06-16T17:45:12.116Z,5.10
2018-06-16T17:47:40.754Z,4.37
2018-06-16T17:50:09.508Z,5.10
2018-06-16T17:52:38.166Z,5.00
2018-06-16T17:55:06.818Z,5.43
2018-06-16T17:57:35.498Z,4.97
2018-06-16T18:00:04.614Z,5.30
2018-06-16T18:02:33.283Z,5.30
2018-06-16T18:05:02.011Z,5.20
2018-06-16T18:07:30.735Z,4.40
2018-06-16T18:09:59.435Z,5.27
2018-06-16T18:12:28.133Z,4.67
2018-06-16T18:14:56.797Z,5.03
2018-06-16T18:17:25.481Z,5.30
2018-06-16T18:19:55.396Z,5.20
2018-06-16T18:22:24.730Z,5.13
2018-06-16T18:24:53.404Z,5.03
2018-06-16T18:27:24.091Z,5.37
2018-06-16T18:29:52.807Z,5.00
2018-06-16T18:32:22.865Z,5.10
2018-06-16T18:34:52.235Z,5.77
2018-06-16T18:37:20.863Z,5.10
2018-06-16T18:39:49.596Z,5.43
2018-06-16T18:42:18.294Z,5.50
2018-06-16T18:44:46.984Z,4.70
2018-06-16T18:47:15.665Z,5.33
2018-06-16T18:49:44.400Z,5.77
2018-06-16T18:52:13.057Z,4.70
2018-06-16T18:54:41.658Z,6.10
2018-06-16T18:57:10.413Z,5.13
2018-06-16T18:59:39.086Z,5.07
2018-06-16T19:02:07.827Z,5.87
2018-06-16T19:04:36.478Z,5.50
2018-06-16T19:07:05.831Z,5.83
2018-06-16T19:09:34.517Z,4.77
2018-06-16T19:12:03.241Z,4.83
2018-06-16T19:14:31.957Z,5.87
2018-06-16T19:17:00.652Z,5.07
2018-06-16T19:19:29.390Z,5.37
2018-06-16T19:21:58.073Z,5.67
2018-06-16T19:24:26.716Z,5.50
2018-06-16T19:26:55.427Z,5.43
2018-06-16T19:29:24.064Z,5.47
2018-06-16T19:31:52.831Z,5.50
2018-06-16T19:34:21.507Z,5.10
2018-06-16T19:36:50.230Z,6.20
2018-06-16T19:39:18.927Z,5.60
2018-06-16T19:41:47.623Z,6.47
2018-06-16T19:44:16.246Z,4.93
2018-06-16T19:46:44.829Z,5.77
2018-06-16T19:49:13.471Z,5.90
2018-06-16T19:51:42.479Z,5.87
2018-06-16T19:54:11.106Z,5.53
2018-06-16T19:56:40.650Z,5.47
2018-06-16T19:59:09.281Z,5.60
2018-06-16T20:01:37.991Z,5.83
2018-06-16T20:04:06.668Z,6.73
2018-06-16T20:06:35.440Z,6.50
2018-06-16T20:09:05.012Z,5.63
2018-06-16T20:11:33.694Z,6.50
2018-06-16T20:14:02.607Z,6.83
2018-06-16T20:16:31.274Z,5.80
2018-06-16T20:19:00.535Z,5.83
2018-06-16T20:21:29.577Z,6.07
2018-06-16T20:23:58.514Z,7.40
2018-06-16T20:26:27.160Z,6.07
2018-06-16T20:28:55.863Z,5.97
2018-06-16T20:31:24.512Z,5.40
2018-06-16T20:33:54.431Z,5.60
2018-06-16T20:36:23.142Z,5.93
2018-06-16T20:38:51.797Z,6.13
2018-06-16T20:41:20.412Z,6.03
2018-06-16T20:43:49.134Z,5.80
2018-06-16T20:46:17.753Z,6.80
2018-06-16T20:48:46.396Z,6.10
2018-06-16T20:51:15.055Z,6.53
2018-06-16T20:53:43.716Z,6.20
2018-06-16T20:56:13.284Z,6.57
2018-06-16T20:58:41.934Z,6.37
2018-06-16T21:01:10.644Z,6.93
2018-06-16T21:03:40.498Z,6.07
2018-06-16T21:06:09.188Z,5.73
2018-06-16T21:08:37.762Z,7.20
2018-06-16T21:11:06.453Z,6.30
2018-06-16T21:13:35.629Z,6.40
2018-06-16T21:16:04.287Z,6.03
2018-06-16T21:18:33.000Z,5.90
2018-06-16T21:21:01.609Z,6.20
2018-06-16T21:23:30.329Z,5.83
2018-06-16T21:25:58.981Z,5.80
2018-06-16T21:28:27.672Z,5.50
2018-06-16T21:30:56.238Z,6.13
2018-06-16T21:33:25.600Z,5.90
2018-06-16T21:35:55.254Z,6.03
2018-06-16T21:38:23.898Z,5.60
2018-06-16T21:40:52.538Z,6.10
2018-06-16T21:43:21.183Z,5.93
2018-06-16T21:45:49.906Z,5.77
2018-06-16T21:48:18.570Z,5.90
2018-06-16T21:50:47.278Z,5.90
2018-06-16T21:53:15.881Z,6.30
2018-06-16T21:55:45.319Z,6.30
2018-06-16T21:58:13.913Z,6.23
2018-06-16T22:00:42.586Z,6.20
2018-06-16T22:03:11.273Z,7.13
2018-06-16T22:05:39.945Z,6.73
2018-06-16T22:08:14.101Z,6.13
2018-06-16T22:10:42.753Z,6.87
2018-06-16T22:13:14.042Z,6.90
2018-06-16T22:15:42.742Z,6.63
2018-06-16T22:18:12.211Z,6.20
2018-06-16T22:20:40.878Z,6.20
2018-06-16T22:23:09.500Z,6.10
2018-06-16T22:25:38.688Z,6.00
2018-06-16T22:28:07.891Z,6.13
2018-06-16T22:30:36.514Z,5.50
2018-06-16T22:33:05.338Z,6.03
2018-06-16T22:35:34.214Z,5.30
2018-06-16T22:38:02.884Z,5.80
2018-06-16T22:40:31.483Z,5.47
2018-06-16T22:43:00.238Z,6.13
2018-06-16T22:45:32.171Z,5.17
2018-06-16T22:48:01.974Z,6.60
2018-06-16T22:50:32.700Z,5.67
2018-06-16T22:53:01.405Z,5.90
2018-06-16T22:55:30.864Z,5.80
2018-06-16T22:58:01.837Z,6.23
2018-06-16T23:00:32.423Z,6.20
2018-06-16T23:03:01.086Z,5.87
2018-06-16T23:05:29.782Z,6.07
2018-06-16T23:07:58.494Z,6.03
2018-06-16T23:10:27.119Z,5.63
2018-06-16T23:12:56.397Z,6.60
2018-06-16T23:15:25.083Z,5.93
2018-06-16T23:17:53.758Z,6.40
2018-06-16T23:20:22.393Z,5.80
2018-06-16T23:22:51.029Z,6.30
2018-06-16T23:25:19.665Z,5.80
2018-06-16T23:27:48.344Z,6.20
2018-06-16T23:30:17.290Z,5.73
2018-06-16T23:32:46.741Z,6.70
2018-06-16T23:35:15.416Z,5.80
2018-06-16T23:37:44.173Z,5.97
2018-06-16T23:40:12.746Z,5.70
2018-06-16T23:42:41.355Z,6.40
2018-06-16T23:45:09.990Z,6.90
2018-06-16T23:47:38.685Z,6.30
2018-06-16T23:50:07.353Z,6.40
2018-06-16T23:52:35.965Z,6.70
2018-06-16T23:55:04.610Z,6.87
2018-06-16T23:57:33.253Z,6.73
